createdAt,value
2023-05-12T00:02:06.603Z,101381.09
2023-05-12T00:04:36.017Z,101380.50
2023-05-12T00:07:06.280Z,101383.88
2023-05-12T00:09:35.541Z,101385.38
2023-05-12T00:12:04.633Z,101387.91
2023-05-12T00:14:32.933Z,101389.95
2023-05-12T00:17:00.405Z,101387.95
2023-05-12T00:19:28.799Z,101391.22
2023-05-12T00:21:56.241Z,101390.21
2023-05-12T00:24:25.563Z,101388.57
2023-05-12T00:26:54.626Z,101389.55
2023-05-12T00:29:22.963Z,101392.73
2023-05-12T00:31:51.444Z,101395.90
2023-05-12T00:34:19.786Z,101394.17
2023-05-12T00:36:47.260Z,101391.95
2023-05-12T00:39:15.775Z,101395.70
2023-05-12T00:41:44.324Z,101391.89
2023-05-12T00:44:12.688Z,101395.94
2023-05-12T00:46:40.092Z,101395.59
2023-05-12T00:49:08.483Z,101397.06
2023-05-12T00:51:35.988Z,101398.34
2023-05-12T00:54:04.516Z,101401.00
2023-05-12T00:56:34.802Z,101401.61
2023-05-12T00:59:04.249Z,101405.88
2023-05-12T01:01:33.306Z,101404.06
2023-05-12T01:04:02.855Z,101406.23
2023-05-12T01:06:35.801Z,101412.95
2023-05-12T01:09:04.507Z,101418.80
2023-05-12T01:11:32.899Z,101419.21
2023-05-12T01:14:01.489Z,101419.42
2023-05-12T01:16:35.989Z,101420.02
2023-05-12T01:19:06.943Z,101420.65
2023-05-12T01:21:36.620Z,101424.02
2023-05-12T01:24:08.466Z,101419.41
2023-05-12T01:26:37.675Z,101420.38
2023-05-12T01:29:06.996Z,101419.75
2023-05-12T01:31:35.470Z,101424.52
2023-05-12T01:34:03.965Z,101418.77
2023-05-12T01:36:33.128Z,101423.61
2023-05-12T01:39:01.715Z,101425.25
2023-05-12T01:41:30.424Z,101422.83
2023-05-12T01:43:58.932Z,101423.92
2023-05-12T01:46:27.868Z,101422.77
2023-05-12T01:48:59.623Z,101427.01
2023-05-12T01:51:28.331Z,101430.55
2023-05-12T01:53:57.760Z,101429.38
2023-05-12T01:56:28.346Z,101429.80
2023-05-12T01:58:57.501Z,101430.88
2023-05-12T02:01:28.126Z,101432.70
2023-05-12T02:03:57.635Z,101437.33
2023-05-12T02:06:27.815Z,101434.81
2023-05-12T02:08:57.149Z,101435.77
2023-05-12T02:11:25.697Z,101438.81
2023-05-12T02:13:53.952Z,101434.48
2023-05-12T02:16:22.050Z,101432.30
2023-05-12T02:18:50.572Z,101432.02
2023-05-12T02:21:19.256Z,101433.12
2023-05-12T02:23:47.605Z,101433.88
2023-05-12T02:26:15.142Z,101438.95
2023-05-12T02:28:43.543Z,101436.77
2023-05-12T02:31:12.103Z,101436.48
2023-05-12T02:33:41.184Z,101441.77
2023-05-12T02:36:10.140Z,101441.30
2023-05-12T02:38:39.622Z,101443.61
2023-05-12T02:41:07.976Z,101444.67
2023-05-12T02:43:35.693Z,101442.61
2023-05-12T02:46:04.126Z,101450.18
2023-05-12T02:48:33.182Z,101450.95
2023-05-12T02:51:00.789Z,101453.92
2023-05-12T02:53:29.450Z,101452.95
2023-05-12T02:55:57.735Z,101457.17
2023-05-12T02:58:25.989Z,101456.66
2023-05-12T03:01:06.671Z,101457.57
2023-05-12T03:03:39.189Z,101461.23
2023-05-12T03:06:08.808Z,101462.11
2023-05-12T03:08:37.087Z,101458.06
2023-05-12T03:11:04.853Z,101460.31
2023-05-12T03:13:33.756Z,101460.83
2023-05-12T03:16:02.393Z,101461.50
2023-05-12T03:18:31.350Z,101461.66
2023-05-12T03:20:59.665Z,101461.43
2023-05-12T03:23:29.431Z,101460.53
2023-05-12T03:25:58.230Z,101460.81
2023-05-12T03:28:26.636Z,101454.60
2023-05-12T03:30:55.105Z,101461.42
2023-05-12T03:33:24.630Z,101462.96
2023-05-12T03:35:54.199Z,101464.60
2023-05-12T03:38:22.488Z,101467.01
2023-05-12T03:40:52.075Z,101467.26
2023-05-12T03:43:20.593Z,101470.52
2023-05-12T03:45:49.089Z,101471.14
2023-05-12T03:48:17.381Z,101474.02
2023-05-12T03:50:44.916Z,101471.61
2023-05-12T03:53:13.270Z,101473.61
2023-05-12T03:55:40.860Z,101474.39
2023-05-12T03:58:09.232Z,101477.77
2023-05-12T04:00:36.670Z,101480.61
2023-05-12T04:03:05.073Z,101479.59
2023-05-12T04:05:37.192Z,101483.23
2023-05-12T04:08:05.879Z,101484.59
2023-05-12T04:10:34.201Z,101488.95
2023-05-12T04:13:01.889Z,101487.86
2023-05-12T04:15:31.581Z,101487.90
2023-05-12T04:17:59.021Z,101488.95
2023-05-12T04:20:27.367Z,101489.52
2023-05-12T04:22:54.929Z,101495.36
2023-05-12T04:25:23.391Z,101490.87
2023-05-12T04:27:50.798Z,101494.19
2023-05-12T04:30:19.471Z,101488.98
2023-05-12T04:32:48.262Z,101488.27
2023-05-12T04:35:17.797Z,101488.73
2023-05-12T04:37:46.759Z,101487.79
2023-05-12T04:40:15.568Z,101487.04
2023-05-12T04:42:43.885Z,101488.48
2023-05-12T04:45:13.040Z,101489.16
2023-05-12T04:47:41.530Z,101490.19
2023-05-12T04:50:11.330Z,101493.69
2023-05-12T04:52:39.878Z,101494.51
2023-05-12T04:55:09.666Z,101497.95
2023-05-12T04:57:40.546Z,101498.34
2023-05-12T05:00:12.441Z,101500.96
2023-05-12T05:02:41.374Z,101496.04
2023-05-12T05:05:11.205Z,101497.69
2023-05-12T05:07:39.541Z,101500.16
2023-05-12T05:10:10.029Z,101498.19
2023-05-12T05:12:39.449Z,101498.90
2023-05-12T05:15:10.965Z,101503.31
2023-05-12T05:17:39.700Z,101503.07
2023-05-12T05:20:12.290Z,101505.17
2023-05-12T05:22:43.394Z,101506.70
2023-05-12T05:25:12.908Z,101505.25
2023-05-12T05:27:41.164Z,101506.89
2023-05-12T05:30:11.200Z,101506.19
2023-05-12T05:32:41.023Z,101515.20
2023-05-12T05:35:10.244Z,101516.45
2023-05-12T05:37:43.045Z,101519.58
2023-05-12T05:40:12.459Z,101519.65
2023-05-12T05:42:40.968Z,101523.21
2023-05-12T05:45:11.356Z,101521.33
2023-05-12T05:47:40.451Z,101527.61
2023-05-12T05:50:10.825Z,101528.30
2023-05-12T05:52:41.186Z,101528.34
2023-05-12T05:55:10.326Z,101532.15
2023-05-12T05:57:38.765Z,101529.98
2023-05-12T06:00:09.708Z,101528.12
2023-05-12T06:02:46.694Z,101530.46
2023-05-12T06:05:19.604Z,101529.34
2023-05-12T06:07:48.156Z,101529.64
2023-05-12T06:10:16.585Z,101532.82
2023-05-12T06:12:45.337Z,101533.41
2023-05-12T06:15:13.698Z,101527.85
2023-05-12T06:17:41.981Z,101532.48
2023-05-12T06:20:12.698Z,101534.59
2023-05-12T06:22:43.716Z,101533.70
2023-05-12T06:25:12.538Z,101532.64
2023-05-12T06:27:40.813Z,101532.23
2023-05-12T06:30:12.530Z,101526.61
2023-05-12T06:32:42.401Z,101523.74
2023-05-12T06:35:11.071Z,101520.84
2023-05-12T06:37:39.365Z,101520.13
2023-05-12T06:40:09.734Z,101520.87
2023-05-12T06:42:38.106Z,101513.52
2023-05-12T06:45:12.251Z,101518.49
2023-05-12T06:47:40.560Z,101519.92
2023-05-12T06:50:09.843Z,101514.83
2023-05-12T06:52:38.258Z,101514.15
2023-05-12T06:55:08.274Z,101511.32
2023-05-12T06:57:36.741Z,101516.86
2023-05-12T07:00:06.947Z,101509.52
2023-05-12T07:02:35.270Z,101509.77
2023-05-12T07:05:03.928Z,101508.73
2023-05-12T07:07:32.215Z,101506.19
2023-05-12T07:10:00.531Z,101503.75
2023-05-12T07:12:28.832Z,101505.31
2023-05-12T07:14:57.144Z,101507.95
2023-05-12T07:17:25.621Z,101503.60
2023-05-12T07:19:53.982Z,101504.05
2023-05-12T07:22:22.879Z,101507.22
2023-05-12T07:24:51.410Z,101502.82
2023-05-12T07:27:19.794Z,101506.85
2023-05-12T07:29:48.157Z,101510.34
2023-05-12T07:32:16.578Z,101502.00
2023-05-12T07:34:45.505Z,101508.13
2023-05-12T07:37:13.875Z,101507.70
2023-05-12T07:39:42.275Z,101509.59
2023-05-12T07:42:10.720Z,101513.48
2023-05-12T07:44:39.209Z,101509.89
2023-05-12T07:47:07.715Z,101507.53
2023-05-12T07:49:36.059Z,101505.86
2023-05-12T07:52:05.049Z,101509.09
2023-05-12T07:54:33.487Z,101510.09
2023-05-12T07:57:01.748Z,101511.33
2023-05-12T07:59:30.200Z,101519.21
2023-05-12T08:01:58.588Z,101520.61
2023-05-12T08:04:26.963Z,101525.12
2023-05-12T08:06:55.345Z,101521.19
2023-05-12T08:09:23.671Z,101525.15
2023-05-12T08:11:52.090Z,101528.77
2023-05-12T08:14:21.751Z,101527.62
2023-05-12T08:16:50.231Z,101527.92
2023-05-12T08:19:18.591Z,101527.70
2023-05-12T08:21:47.079Z,101526.33
2023-05-12T08:24:15.373Z,101519.42
2023-05-12T08:26:43.640Z,101519.52
2023-05-12T08:29:12.294Z,101520.34
2023-05-12T08:31:40.728Z,101521.64
2023-05-12T08:34:11.093Z,101525.16
2023-05-12T08:36:39.935Z,101520.79
2023-05-12T08:39:09.718Z,101520.88
2023-05-12T08:41:43.879Z,101516.38
2023-05-12T08:44:12.591Z,101523.53
2023-05-12T08:46:41.682Z,101521.80
2023-05-12T08:49:14.940Z,101527.84
2023-05-12T08:51:46.648Z,101520.52
2023-05-12T08:54:19.754Z,101525.81
2023-05-12T08:59:20.564Z,101529.23
2023-05-12T09:01:50.285Z,101520.14
2023-05-12T09:04:19.337Z,101513.33
2023-05-12T09:06:48.238Z,101514.14
2023-05-12T09:09:17.406Z,101513.21
2023-05-12T09:11:45.821Z,101501.89
2023-05-12T09:14:18.735Z,101514.48
2023-05-12T09:16:49.025Z,101518.44
2023-05-12T09:19:20.681Z,101510.96
2023-05-12T09:21:48.995Z,101512.84
2023-05-12T09:24:17.458Z,101521.45
2023-05-12T09:26:47.254Z,101520.77
2023-05-12T09:29:24.043Z,101517.50
2023-05-12T09:32:01.355Z,101517.84
2023-05-12T09:34:31.146Z,101513.33
2023-05-12T09:37:01.359Z,101501.98
2023-05-12T09:39:29.808Z,101508.22
2023-05-12T09:41:58.098Z,101505.29
2023-05-12T09:44:28.337Z,101499.73
2023-05-12T09:46:56.699Z,101510.57
2023-05-12T09:49:26.209Z,101494.70
2023-05-12T09:51:57.771Z,101497.98
2023-05-12T09:54:27.617Z,101496.29
2023-05-12T09:56:58.828Z,101495.23
2023-05-12T09:59:30.117Z,101492.36
2023-05-12T10:02:00.269Z,101502.64
2023-05-12T10:04:30.055Z,101497.13
2023-05-12T10:06:59.046Z,101488.15
2023-05-12T10:09:33.288Z,101493.33
2023-05-12T10:12:03.661Z,101493.94
2023-05-12T10:14:32.074Z,101492.55
2023-05-12T10:17:00.876Z,101490.73
2023-05-12T10:19:30.772Z,101497.71
2023-05-12T10:21:59.076Z,101489.05
2023-05-12T10:24:27.856Z,101492.73
2023-05-12T10:26:57.002Z,101491.11
2023-05-12T10:29:29.093Z,101490.69
2023-05-12T10:31:57.787Z,101486.60
2023-05-12T10:34:32.596Z,101487.79
2023-05-12T10:37:02.869Z,101482.55
2023-05-12T10:39:32.182Z,101480.31
2023-05-12T10:42:06.410Z,101477.54
2023-05-12T10:44:35.184Z,101480.73
2023-05-12T10:47:13.449Z,101482.70
2023-05-12T10:49:42.420Z,101481.70
2023-05-12T10:52:12.541Z,101481.29
2023-05-12T10:54:43.893Z,101479.42
2023-05-12T10:57:18.536Z,101476.70
2023-05-12T10:59:51.600Z,101467.97
2023-05-12T11:02:25.033Z,101464.34
2023-05-12T11:04:57.924Z,101476.02
2023-05-12T11:07:29.355Z,101469.70
2023-05-12T11:10:01.636Z,101468.59
2023-05-12T11:12:32.534Z,101459.33
2023-05-12T11:15:02.632Z,101466.11
2023-05-12T11:17:31.254Z,101463.81
2023-05-12T11:20:00.338Z,101459.19
2023-05-12T11:22:28.673Z,101472.69
2023-05-12T11:24:57.059Z,101473.23
2023-05-12T11:27:25.395Z,101467.93
2023-05-12T11:29:58.125Z,101463.27
2023-05-12T11:32:26.742Z,101455.49
2023-05-12T11:34:55.268Z,101454.63
2023-05-12T11:37:23.648Z,101462.39
2023-05-12T11:39:52.419Z,101455.09
2023-05-12T11:42:22.779Z,101461.05
2023-05-12T11:44:54.621Z,101466.86
2023-05-12T11:47:23.161Z,101465.46
2023-05-12T11:49:52.648Z,101456.39
2023-05-12T11:52:22.132Z,101456.73
2023-05-12T11:54:51.242Z,101458.40
2023-05-12T11:57:27.133Z,101453.55
2023-05-12T11:59:59.527Z,101450.48
2023-05-12T12:02:28.497Z,101447.65
2023-05-12T12:04:57.563Z,101450.01
2023-05-12T12:07:33.146Z,101444.31
2023-05-12T12:10:12.666Z,101449.08
2023-05-12T12:12:41.032Z,101452.14
2023-05-12T12:15:11.547Z,101453.05
2023-05-12T12:17:40.502Z,101447.34
2023-05-12T12:20:10.668Z,101440.61
2023-05-12T12:22:39.081Z,101447.41
2023-05-12T12:25:09.337Z,101452.77
2023-05-12T12:27:37.734Z,101445.86
2023-05-12T12:30:08.338Z,101448.89
2023-05-12T12:32:36.864Z,101449.20
2023-05-12T12:35:06.788Z,101448.64
2023-05-12T12:37:35.054Z,101452.02
2023-05-12T12:40:07.472Z,101455.69
2023-05-12T12:42:37.083Z,101454.08
2023-05-12T12:45:08.144Z,101448.88
2023-05-12T12:47:37.301Z,101446.99
2023-05-12T12:50:09.279Z,101444.34
2023-05-12T12:52:37.906Z,101444.17
2023-05-12T12:55:09.231Z,101440.88
2023-05-12T12:57:38.163Z,101444.43
2023-05-12T13:00:09.532Z,101434.41
2023-05-12T13:02:38.833Z,101432.83
2023-05-12T13:05:09.080Z,101434.77
2023-05-12T13:07:37.467Z,101431.19
2023-05-12T13:10:07.486Z,101422.14
2023-05-12T13:12:36.146Z,101429.02
2023-05-12T13:15:06.582Z,101434.19
2023-05-12T13:17:35.012Z,101423.80
2023-05-12T13:20:04.071Z,101423.45
2023-05-12T13:22:32.537Z,101415.08
2023-05-12T13:25:00.995Z,101410.20
2023-05-12T13:27:29.413Z,101409.08
2023-05-12T13:29:57.873Z,101410.92
2023-05-12T13:32:26.282Z,101411.76
2023-05-12T13:34:54.691Z,101407.61
2023-05-12T13:37:23.386Z,101406.30
2023-05-12T13:39:51.713Z,101415.83
2023-05-12T13:42:21.068Z,101414.58
2023-05-12T13:44:49.864Z,101414.92
2023-05-12T13:47:18.440Z,101410.48
2023-05-12T13:49:46.931Z,101404.78
2023-05-12T13:52:15.433Z,101397.69
2023-05-12T13:54:43.818Z,101385.39
2023-05-12T13:57:12.171Z,101389.91
2023-05-12T13:59:40.685Z,101387.27
2023-05-12T14:02:11.352Z,101396.33
2023-05-12T14:04:40.132Z,101390.91
2023-05-12T14:07:08.881Z,101400.94
2023-05-12T14:09:37.327Z,101388.36
2023-05-12T14:12:07.428Z,101393.03
2023-05-12T14:14:35.917Z,101385.49
2023-05-12T14:17:04.642Z,101387.80
2023-05-12T14:19:34.974Z,101387.61
2023-05-12T14:22:09.958Z,101378.52
2023-05-12T14:24:47.139Z,101381.36
2023-05-12T14:27:15.413Z,101383.19
2023-05-12T14:29:43.840Z,101394.64
2023-05-12T14:32:12.618Z,101394.28
2023-05-12T14:34:40.925Z,101394.17
2023-05-12T14:37:09.275Z,101393.67
2023-05-12T14:39:37.617Z,101399.52
2023-05-12T14:42:06.716Z,101400.63
2023-05-12T14:44:35.469Z,101402.22
2023-05-12T14:47:05.222Z,101400.05
2023-05-12T14:49:34.228Z,101395.81
2023-05-12T14:52:03.052Z,101394.48
2023-05-12T14:54:32.810Z,101386.86
2023-05-12T14:57:01.226Z,101380.16
2023-05-12T14:59:30.259Z,101380.04
2023-05-12T15:01:58.613Z,101382.11
2023-05-12T15:04:27.299Z,101393.16
2023-05-12T15:06:55.912Z,101387.05
2023-05-12T15:09:24.183Z,101390.74
2023-05-12T15:11:52.485Z,101395.67
2023-05-12T15:14:20.762Z,101392.59
2023-05-12T15:16:49.163Z,101394.77
2023-05-12T15:19:19.865Z,101390.48
2023-05-12T15:21:48.328Z,101383.83
2023-05-12T15:24:16.636Z,101381.00
2023-05-12T15:26:45.238Z,101381.23
2023-05-12T15:29:14.047Z,101379.95
2023-05-12T15:31:42.447Z,101378.34
2023-05-12T15:34:10.961Z,101382.64
2023-05-12T15:36:39.402Z,101380.59
2023-05-12T15:39:08.043Z,101377.71
2023-05-12T15:41:36.315Z,101372.52
2023-05-12T15:44:05.611Z,101376.98
2023-05-12T15:46:35.025Z,101376.36
2023-05-12T15:49:03.389Z,101375.28
2023-05-12T15:51:33.230Z,101379.40
2023-05-12T15:54:02.180Z,101384.85
2023-05-12T15:56:31.799Z,101385.17
2023-05-12T15:59:00.542Z,101377.39
2023-05-12T16:01:28.920Z,101376.61
2023-05-12T16:03:57.808Z,101377.48
2023-05-12T16:06:26.597Z,101379.95
2023-05-12T16:08:55.548Z,101377.70
2023-05-12T16:11:23.896Z,101374.99
2023-05-12T16:13:52.726Z,101373.52
2023-05-12T16:16:21.892Z,101370.63
2023-05-12T16:18:52.299Z,101367.33
2023-05-12T16:21:21.085Z,101364.50
2023-05-12T16:23:49.437Z,101367.21
2023-05-12T16:26:18.904Z,101367.16
2023-05-12T16:28:47.323Z,101370.86
2023-05-12T16:31:18.077Z,101373.36
2023-05-12T16:33:46.616Z,101369.05
2023-05-12T16:36:16.122Z,101367.14
2023-05-12T16:38:45.470Z,101370.46
2023-05-12T16:41:14.343Z,101369.80
2023-05-12T16:43:42.636Z,101370.77
2023-05-12T16:46:10.986Z,101369.42
2023-05-12T16:48:39.409Z,101371.44
2023-05-12T16:51:09.472Z,101369.38
2023-05-12T16:53:38.310Z,101369.33
2023-05-12T16:56:07.685Z,101369.15
2023-05-12T16:58:36.079Z,101367.77
2023-05-12T17:01:04.769Z,101369.37
2023-05-12T17:03:33.274Z,101372.54
2023-05-12T17:06:01.753Z,101373.69
2023-05-12T17:08:30.491Z,101379.16
2023-05-12T17:10:58.975Z,101379.65
2023-05-12T17:13:27.395Z,101381.86
2023-05-12T17:15:55.932Z,101382.98
2023-05-12T17:18:25.240Z,101384.91
2023-05-12T17:20:53.562Z,101386.44
2023-05-12T17:23:21.855Z,101385.71
2023-05-12T17:25:50.237Z,101386.73
2023-05-12T17:28:18.682Z,101386.85
2023-05-12T17:30:47.027Z,101389.45
2023-05-12T17:33:15.392Z,101391.05
2023-05-12T17:35:47.082Z,101391.23
2023-05-12T17:38:20.224Z,101392.43
2023-05-12T17:40:48.531Z,101396.32
2023-05-12T17:43:17.144Z,101393.67
2023-05-12T17:45:45.475Z,101397.39
2023-05-12T17:48:13.887Z,101398.87
2023-05-12T17:50:42.278Z,101400.60
2023-05-12T17:53:10.846Z,101402.03
2023-05-12T17:55:39.220Z,101403.92
2023-05-12T17:58:08.025Z,101398.92
2023-05-12T18:00:36.612Z,101405.73
2023-05-12T18:03:05.341Z,101407.60
2023-05-12T18:05:34.854Z,101407.23
2023-05-12T18:08:04.063Z,101413.55
2023-05-12T18:10:32.515Z,101415.55
2023-05-12T18:13:00.810Z,101420.09
2023-05-12T18:15:29.497Z,101426.24
2023-05-12T18:17:58.019Z,101428.16
2023-05-12T18:20:26.791Z,101429.98
2023-05-12T18:22:55.165Z,101429.92
2023-05-12T18:25:23.814Z,101433.71
2023-05-12T18:27:52.251Z,101431.23
2023-05-12T18:30:20.789Z,101439.86
2023-05-12T18:32:49.738Z,101439.30
2023-05-12T18:35:18.127Z,101444.13
2023-05-12T18:37:46.586Z,101440.55
2023-05-12T18:40:15.108Z,101453.68
2023-05-12T18:42:43.730Z,101451.98
2023-05-12T18:45:12.589Z,101458.04
2023-05-12T18:47:41.119Z,101455.77
2023-05-12T18:50:10.729Z,101451.40
2023-05-12T18:52:39.079Z,101459.54
2023-05-12T18:55:08.904Z,101459.16
2023-05-12T18:57:37.174Z,101462.14
2023-05-12T19:00:09.158Z,101464.45
2023-05-12T19:02:37.674Z,101468.30
2023-05-12T19:05:07.473Z,101466.69
2023-05-12T19:07:35.870Z,101464.48
2023-05-12T19:10:05.242Z,101466.61
2023-05-12T19:12:33.482Z,101465.61
2023-05-12T19:15:04.246Z,101472.02
2023-05-12T19:17:32.837Z,101475.36
2023-05-12T19:20:01.617Z,101473.56
2023-05-12T19:22:30.346Z,101477.92
2023-05-12T19:25:00.207Z,101476.69
2023-05-12T19:27:28.650Z,101479.64
2023-05-12T19:29:57.193Z,101481.02
2023-05-12T19:32:25.594Z,101480.63
2023-05-12T19:34:55.300Z,101481.83
2023-05-12T19:37:23.824Z,101481.41
2023-05-12T19:39:53.076Z,101482.55
2023-05-12T19:42:21.420Z,101481.38
2023-05-12T19:44:49.785Z,101481.29
2023-05-12T19:47:18.402Z,101485.92
2023-05-12T19:49:46.803Z,101486.48
2023-05-12T19:52:15.293Z,101487.17
2023-05-12T19:54:43.710Z,101486.66
2023-05-12T19:57:12.106Z,101489.82
2023-05-12T19:59:40.418Z,101488.47
2023-05-12T20:02:09.562Z,101490.52
2023-05-12T20:04:38.241Z,101489.64
2023-05-12T20:07:08.219Z,101486.95
2023-05-12T20:09:36.781Z,101492.75
2023-05-12T20:12:07.583Z,101492.24
2023-05-12T20:14:37.688Z,101494.40
2023-05-12T20:17:06.942Z,101491.45
2023-05-12T20:19:35.492Z,101491.99
2023-05-12T20:22:04.025Z,101497.35
2023-05-12T20:24:32.257Z,101490.98
2023-05-12T20:27:00.573Z,101492.16
2023-05-12T20:29:29.519Z,101492.89
2023-05-12T20:31:57.915Z,101489.10
2023-05-12T20:34:26.141Z,101492.33
2023-05-12T20:36:54.566Z,101492.15
2023-05-12T20:39:22.891Z,101486.74
2023-05-12T20:41:51.177Z,101491.73
2023-05-12T20:44:19.448Z,101489.17
2023-05-12T20:46:47.991Z,101490.91
2023-05-12T20:49:16.483Z,101488.46
2023-05-12T20:51:44.824Z,101489.98
2023-05-12T20:54:12.189Z,101494.82
2023-05-12T20:56:40.422Z,101494.61
2023-05-12T20:59:07.837Z,101498.21
2023-05-12T21:01:36.178Z,101495.75
2023-05-12T21:04:05.095Z,101493.66
2023-05-12T21:06:35.190Z,101496.43
2023-05-12T21:09:04.331Z,101495.88
2023-05-12T21:11:32.977Z,101501.10
2023-05-12T21:14:01.279Z,101502.88
2023-05-12T21:16:28.711Z,101502.36
2023-05-12T21:18:57.393Z,101503.93
2023-05-12T21:21:26.175Z,101506.30
2023-05-12T21:23:53.516Z,101503.78
2023-05-12T21:26:21.839Z,101506.33
2023-05-12T21:28:50.393Z,101506.71
2023-05-12T21:31:18.814Z,101507.47
2023-05-12T21:33:46.985Z,101505.25
2023-05-12T21:36:15.364Z,101508.79
2023-05-12T21:38:42.783Z,101506.52
2023-05-12T21:41:11.076Z,101506.60
2023-05-12T21:43:38.541Z,101508.61
2023-05-12T21:46:06.928Z,101510.79
2023-05-12T21:48:35.394Z,101511.87
2023-05-12T21:51:04.318Z,101517.53
2023-05-12T21:53:32.569Z,101515.13
2023-05-12T21:56:00.891Z,101516.08
2023-05-12T21:58:28.718Z,101514.23
2023-05-12T22:00:57.588Z,101516.10
2023-05-12T22:03:26.543Z,101514.98
2023-05-12T22:05:56.123Z,101513.96
2023-05-12T22:08:24.618Z,101518.39
2023-05-12T22:10:52.045Z,101516.86
2023-05-12T22:13:20.427Z,101519.80
2023-05-12T22:15:47.959Z,101520.58
2023-05-12T22:18:16.444Z,101523.63
2023-05-12T22:20:45.075Z,101523.89
2023-05-12T22:23:13.601Z,101524.48
2023-05-12T22:25:42.014Z,101522.82
2023-05-12T22:28:09.454Z,101520.99
2023-05-12T22:30:38.759Z,101518.77
2023-05-12T22:33:07.560Z,101522.88
2023-05-12T22:35:35.032Z,101520.20
2023-05-12T22:38:03.411Z,101519.79
2023-05-12T22:40:32.147Z,101519.13
2023-05-12T22:43:00.506Z,101518.31
2023-05-12T22:45:28.015Z,101517.80
2023-05-12T22:47:56.389Z,101516.60
2023-05-12T22:50:24.644Z,101515.71
2023-05-12T22:52:56.419Z,101515.20
2023-05-12T22:55:26.674Z,101512.02
2023-05-12T22:57:55.503Z,101508.83
2023-05-12T23:00:24.210Z,101507.04
2023-05-12T23:02:52.774Z,101507.02
2023-05-12T23:05:21.546Z,101505.40
2023-05-12T23:07:49.948Z,101508.70
2023-05-12T23:10:18.789Z,101511.01
2023-05-12T23:12:47.389Z,101513.55
2023-05-12T23:15:16.012Z,101516.46
2023-05-12T23:17:44.708Z,101520.05
2023-05-12T23:20:13.658Z,101519.55
2023-05-12T23:22:42.165Z,101519.24
2023-05-12T23:25:10.777Z,101522.57
2023-05-12T23:27:39.365Z,101517.84
2023-05-12T23:30:09.371Z,101517.64
2023-05-12T23:32:38.186Z,101508.84
2023-05-12T23:35:09.236Z,101515.60
2023-05-12T23:37:37.840Z,101513.72
2023-05-12T23:40:09.732Z,101513.08
2023-05-12T23:42:39.563Z,101514.75
2023-05-12T23:45:10.142Z,101516.23
2023-05-12T23:47:38.702Z,101516.63
2023-05-12T23:50:09.263Z,101514.59
2023-05-12T23:52:38.123Z,101512.55
2023-05-12T23:55:08.592Z,101510.64
2023-05-12T23:57:37.256Z,101511.73
